sensor_id;sensor_type;location;lat;lon;timestamp;temperature;humidity
21608;DHT22;10966;51.076;3.782;2022-07-05T00:00:17;18.10;99.90
21608;DHT22;10966;51.076;3.782;2022-07-05T00:02:43;18.10;99.90
21608;DHT22;10966;51.076;3.782;2022-07-05T00:05:08;18.20;99.90
21608;DHT22;10966;51.076;3.782;2022-07-05T00:07:34;18.00;99.90
21608;DHT22;10966;51.076;3.782;2022-07-05T00:10:00;17.90;99.90
21608;DHT22;10966;51.076;3.782;2022-07-05T00:12:28;17.90;99.90
21608;DHT22;10966;51.076;3.782;2022-07-05T00:14:56;18.00;99.90
21608;DHT22;10966;51.076;3.782;2022-07-05T00:17:22;18.00;99.90
21608;DHT22;10966;51.076;3.782;2022-07-05T00:19:47;17.90;99.90
21608;DHT22;10966;51.076;3.782;2022-07-05T00:22:13;17.90;99.90
21608;DHT22;10966;51.076;3.782;2022-07-05T00:24:39;18.00;99.90
21608;DHT22;10966;51.076;3.782;2022-07-05T00:27:05;18.10;99.90
21608;DHT22;10966;51.076;3.782;2022-07-05T00:29:30;18.10;99.90
21608;DHT22;10966;51.076;3.782;2022-07-05T00:31:56;18.00;99.90
21608;DHT22;10966;51.076;3.782;2022-07-05T00:34:22;18.00;99.90
21608;DHT22;10966;51.076;3.782;2022-07-05T00:36:47;17.90;99.90
21608;DHT22;10966;51.076;3.782;2022-07-05T00:39:13;17.80;99.90
21608;DHT22;10966;51.076;3.782;2022-07-05T00:41:39;17.60;99.90
21608;DHT22;10966;51.076;3.782;2022-07-05T00:44:10;17.70;99.90
21608;DHT22;10966;51.076;3.782;2022-07-05T00:46:38;17.90;99.90
21608;DHT22;10966;51.076;3.782;2022-07-05T00:49:04;17.80;99.90
21608;DHT22;10966;51.076;3.782;2022-07-05T00:51:33;17.80;99.90
21608;DHT22;10966;51.076;3.782;2022-07-05T00:54:00;17.50;99.90
21608;DHT22;10966;51.076;3.782;2022-07-05T00:56:27;17.40;99.90
21608;DHT22;10966;51.076;3.782;2022-07-05T00:58:54;17.50;99.90
21608;DHT22;10966;51.076;3.782;2022-07-05T01:01:20;17.70;99.90
21608;DHT22;10966;51.076;3.782;2022-07-05T01:03:45;17.60;99.90
21608;DHT22;10966;51.076;3.782;2022-07-05T01:06:13;17.70;99.90
21608;DHT22;10966;51.076;3.782;2022-07-05T01:08:41;17.60;99.90
21608;DHT22;10966;51.076;3.782;2022-07-05T01:11:11;17.60;99.90
21608;DHT22;10966;51.076;3.782;2022-07-05T01:13:37;17.60;99.90
21608;DHT22;10966;51.076;3.782;2022-07-05T01:16:04;17.20;99.90
21608;DHT22;10966;51.076;3.782;2022-07-05T01:18:30;17.00;99.90
21608;DHT22;10966;51.076;3.782;2022-07-05T01:20:58;17.10;99.90
21608;DHT22;10966;51.076;3.782;2022-07-05T01:23:27;16.90;99.90
21608;DHT22;10966;51.076;3.782;2022-07-05T01:25:53;16.80;99.90
21608;DHT22;10966;51.076;3.782;2022-07-05T01:28:20;16.80;99.90
21608;DHT22;10966;51.076;3.782;2022-07-05T01:30:47;17.00;99.90
21608;DHT22;10966;51.076;3.782;2022-07-05T01:33:13;17.10;99.90
21608;DHT22;10966;51.076;3.782;2022-07-05T01:35:39;17.20;99.90
21608;DHT22;10966;51.076;3.782;2022-07-05T01:38:04;17.10;99.90
21608;DHT22;10966;51.076;3.782;2022-07-05T01:40:31;17.10;99.90
21608;DHT22;10966;51.076;3.782;2022-07-05T01:42:56;17.10;99.90
21608;DHT22;10966;51.076;3.782;2022-07-05T01:45:22;17.10;99.90
21608;DHT22;10966;51.076;3.782;2022-07-05T01:48:09;17.20;99.90
21608;DHT22;10966;51.076;3.782;2022-07-05T01:50:57;17.20;99.90
21608;DHT22;10966;51.076;3.782;2022-07-05T01:53:28;17.10;99.90
21608;DHT22;10966;51.076;3.782;2022-07-05T01:55:56;17.10;99.90
21608;DHT22;10966;51.076;3.782;2022-07-05T01:58:24;17.10;99.90
21608;DHT22;10966;51.076;3.782;2022-07-05T02:00:52;17.20;99.90
21608;DHT22;10966;51.076;3.782;2022-07-05T02:03:19;17.10;99.90
21608;DHT22;10966;51.076;3.782;2022-07-05T02:05:45;17.00;99.90
21608;DHT22;10966;51.076;3.782;2022-07-05T02:08:12;17.00;99.90
21608;DHT22;10966;51.076;3.782;2022-07-05T02:10:39;16.90;99.90
21608;DHT22;10966;51.076;3.782;2022-07-05T02:13:05;17.00;99.90
21608;DHT22;10966;51.076;3.782;2022-07-05T02:15:32;17.00;99.90
21608;DHT22;10966;51.076;3.782;2022-07-05T02:17:59;17.10;99.90
21608;DHT22;10966;51.076;3.782;2022-07-05T02:20:25;17.20;99.90
21608;DHT22;10966;51.076;3.782;2022-07-05T02:22:50;17.10;99.90
21608;DHT22;10966;51.076;3.782;2022-07-05T02:25:16;17.00;99.90
21608;DHT22;10966;51.076;3.782;2022-07-05T02:27:42;16.90;99.90
21608;DHT22;10966;51.076;3.782;2022-07-05T02:30:08;16.70;99.90
21608;DHT22;10966;51.076;3.782;2022-07-05T02:32:34;16.80;99.90
21608;DHT22;10966;51.076;3.782;2022-07-05T02:34:59;16.90;99.90
21608;DHT22;10966;51.076;3.782;2022-07-05T02:37:27;16.90;99.90
21608;DHT22;10966;51.076;3.782;2022-07-05T02:39:52;17.00;99.90
21608;DHT22;10966;51.076;3.782;2022-07-05T02:42:18;16.90;99.90
21608;DHT22;10966;51.076;3.782;2022-07-05T02:44:43;16.90;99.90
21608;DHT22;10966;51.076;3.782;2022-07-05T02:47:09;16.90;99.90
21608;DHT22;10966;51.076;3.782;2022-07-05T02:49:35;17.00;99.90
21608;DHT22;10966;51.076;3.782;2022-07-05T02:52:00;17.00;99.90
21608;DHT22;10966;51.076;3.782;2022-07-05T02:54:26;17.10;99.90
21608;DHT22;10966;51.076;3.782;2022-07-05T02:56:52;17.10;99.90
21608;DHT22;10966;51.076;3.782;2022-07-05T02:59:17;17.10;99.90
21608;DHT22;10966;51.076;3.782;2022-07-05T03:01:43;17.10;99.90
21608;DHT22;10966;51.076;3.782;2022-07-05T03:04:08;17.00;99.90
21608;DHT22;10966;51.076;3.782;2022-07-05T03:06:36;16.90;99.90
21608;DHT22;10966;51.076;3.782;2022-07-05T03:09:01;16.90;99.90
21608;DHT22;10966;51.076;3.782;2022-07-05T03:11:27;16.70;99.90
21608;DHT22;10966;51.076;3.782;2022-07-05T03:13:53;16.70;99.90
21608;DHT22;10966;51.076;3.782;2022-07-05T03:16:18;16.60;99.90
21608;DHT22;10966;51.076;3.782;2022-07-05T03:18:44;16.70;99.90
21608;DHT22;10966;51.076;3.782;2022-07-05T03:21:09;16.50;99.90
21608;DHT22;10966;51.076;3.782;2022-07-05T03:23:35;16.40;99.90
21608;DHT22;10966;51.076;3.782;2022-07-05T03:26:01;16.50;99.90
21608;DHT22;10966;51.076;3.782;2022-07-05T03:28:26;16.50;99.90
21608;DHT22;10966;51.076;3.782;2022-07-05T03:30:52;16.50;99.90
21608;DHT22;10966;51.076;3.782;2022-07-05T03:33:18;16.50;99.90
21608;DHT22;10966;51.076;3.782;2022-07-05T03:35:43;16.50;99.90
21608;DHT22;10966;51.076;3.782;2022-07-05T03:38:09;16.70;99.90
21608;DHT22;10966;51.076;3.782;2022-07-05T03:40:34;17.00;99.90
21608;DHT22;10966;51.076;3.782;2022-07-05T03:43:00;16.80;99.90
21608;DHT22;10966;51.076;3.782;2022-07-05T03:45:26;16.70;99.90
21608;DHT22;10966;51.076;3.782;2022-07-05T03:47:51;16.80;99.90
21608;DHT22;10966;51.076;3.782;2022-07-05T03:50:17;16.90;99.90
21608;DHT22;10966;51.076;3.782;2022-07-05T03:52:43;17.00;99.90
21608;DHT22;10966;51.076;3.782;2022-07-05T03:55:08;16.90;99.90
21608;DHT22;10966;51.076;3.782;2022-07-05T03:57:34;16.90;99.90
21608;DHT22;10966;51.076;3.782;2022-07-05T04:00:00;16.80;99.90
21608;DHT22;10966;51.076;3.782;2022-07-05T04:02:25;16.80;99.90
21608;DHT22;10966;51.076;3.782;2022-07-05T04:04:51;16.90;99.90
21608;DHT22;10966;51.076;3.782;2022-07-05T04:07:17;16.70;99.90
21608;DHT22;10966;51.076;3.782;2022-07-05T04:09:42;16.60;99.90
21608;DHT22;10966;51.076;3.782;2022-07-05T04:12:08;16.50;99.90
21608;DHT22;10966;51.076;3.782;2022-07-05T04:14:34;16.60;99.90
21608;DHT22;10966;51.076;3.782;2022-07-05T04:17:00;16.80;99.90
21608;DHT22;10966;51.076;3.782;2022-07-05T04:19:26;16.90;99.90
21608;DHT22;10966;51.076;3.782;2022-07-05T04:21:51;16.80;99.90
21608;DHT22;10966;51.076;3.782;2022-07-05T04:24:17;17.10;99.90
21608;DHT22;10966;51.076;3.782;2022-07-05T04:26:42;17.10;99.90
21608;DHT22;10966;51.076;3.782;2022-07-05T04:29:08;17.10;99.90
21608;DHT22;10966;51.076;3.782;2022-07-05T04:31:34;17.10;99.90
21608;DHT22;10966;51.076;3.782;2022-07-05T04:34:00;17.00;99.90
21608;DHT22;10966;51.076;3.782;2022-07-05T04:36:26;17.10;99.90
21608;DHT22;10966;51.076;3.782;2022-07-05T04:38:51;17.10;99.90
21608;DHT22;10966;51.076;3.782;2022-07-05T04:41:17;17.20;99.90
21608;DHT22;10966;51.076;3.782;2022-07-05T04:43:43;17.30;99.90
21608;DHT22;10966;51.076;3.782;2022-07-05T04:46:08;17.50;99.90
21608;DHT22;10966;51.076;3.782;2022-07-05T04:48:34;17.50;99.90
21608;DHT22;10966;51.076;3.782;2022-07-05T04:51:00;17.50;99.90
21608;DHT22;10966;51.076;3.782;2022-07-05T04:53:25;17.20;99.90
21608;DHT22;10966;51.076;3.782;2022-07-05T04:55:51;17.10;99.90
21608;DHT22;10966;51.076;3.782;2022-07-05T04:58:17;17.20;99.90
21608;DHT22;10966;51.076;3.782;2022-07-05T05:00:42;17.00;99.90
21608;DHT22;10966;51.076;3.782;2022-07-05T05:03:08;17.00;99.90
21608;DHT22;10966;51.076;3.782;2022-07-05T05:05:34;17.20;99.90
21608;DHT22;10966;51.076;3.782;2022-07-05T05:07:59;17.30;99.90
21608;DHT22;10966;51.076;3.782;2022-07-05T05:10:25;17.30;99.90
21608;DHT22;10966;51.076;3.782;2022-07-05T05:12:51;17.30;99.90
21608;DHT22;10966;51.076;3.782;2022-07-05T05:15:16;17.30;99.90
21608;DHT22;10966;51.076;3.782;2022-07-05T05:17:43;17.10;99.90
21608;DHT22;10966;51.076;3.782;2022-07-05T05:20:14;16.60;99.90
21608;DHT22;10966;51.076;3.782;2022-07-05T05:22:40;16.50;99.90
21608;DHT22;10966;51.076;3.782;2022-07-05T05:25:07;16.50;99.90
21608;DHT22;10966;51.076;3.782;2022-07-05T05:27:33;16.70;99.90
21608;DHT22;10966;51.076;3.782;2022-07-05T05:29:59;16.80;99.90
21608;DHT22;10966;51.076;3.782;2022-07-05T05:32:24;17.00;99.90
21608;DHT22;10966;51.076;3.782;2022-07-05T05:34:50;17.10;99.90
21608;DHT22;10966;51.076;3.782;2022-07-05T05:37:16;17.20;99.90
21608;DHT22;10966;51.076;3.782;2022-07-05T05:39:41;17.30;99.90
21608;DHT22;10966;51.076;3.782;2022-07-05T05:42:07;17.30;99.90
21608;DHT22;10966;51.076;3.782;2022-07-05T05:44:33;17.20;99.90
21608;DHT22;10966;51.076;3.782;2022-07-05T05:47:00;17.30;99.90
21608;DHT22;10966;51.076;3.782;2022-07-05T05:49:26;17.40;99.90
21608;DHT22;10966;51.076;3.782;2022-07-05T05:51:51;17.80;99.90
21608;DHT22;10966;51.076;3.782;2022-07-05T05:54:17;18.00;99.90
21608;DHT22;10966;51.076;3.782;2022-07-05T05:56:42;18.30;99.90
21608;DHT22;10966;51.076;3.782;2022-07-05T05:59:08;18.40;99.90
21608;DHT22;10966;51.076;3.782;2022-07-05T06:01:34;18.60;99.90
21608;DHT22;10966;51.076;3.782;2022-07-05T06:03:59;18.90;99.90
21608;DHT22;10966;51.076;3.782;2022-07-05T06:06:25;18.80;99.90
21608;DHT22;10966;51.076;3.782;2022-07-05T06:08:50;19.40;99.90
21608;DHT22;10966;51.076;3.782;2022-07-05T06:11:16;19.40;99.90
21608;DHT22;10966;51.076;3.782;2022-07-05T06:13:43;19.50;99.90
21608;DHT22;10966;51.076;3.782;2022-07-05T06:16:09;19.50;99.90
21608;DHT22;10966;51.076;3.782;2022-07-05T06:18:35;19.50;99.90
21608;DHT22;10966;51.076;3.782;2022-07-05T06:21:01;19.80;99.90
21608;DHT22;10966;51.076;3.782;2022-07-05T06:23:26;20.00;99.90
21608;DHT22;10966;51.076;3.782;2022-07-05T06:25:52;20.20;99.90
21608;DHT22;10966;51.076;3.782;2022-07-05T06:28:18;20.30;99.90
21608;DHT22;10966;51.076;3.782;2022-07-05T06:30:44;20.30;99.90
21608;DHT22;10966;51.076;3.782;2022-07-05T06:33:15;20.50;99.90
21608;DHT22;10966;51.076;3.782;2022-07-05T06:35:41;20.80;99.90
21608;DHT22;10966;51.076;3.782;2022-07-05T06:38:08;20.60;99.90
21608;DHT22;10966;51.076;3.782;2022-07-05T06:40:39;20.50;99.90
21608;DHT22;10966;51.076;3.782;2022-07-05T06:43:11;20.80;99.90
21608;DHT22;10966;51.076;3.782;2022-07-05T06:45:37;20.70;99.90
21608;DHT22;10966;51.076;3.782;2022-07-05T06:48:05;20.50;99.90
21608;DHT22;10966;51.076;3.782;2022-07-05T06:50:33;20.30;99.90
21608;DHT22;10966;51.076;3.782;2022-07-05T06:53:00;20.10;99.90
21608;DHT22;10966;51.076;3.782;2022-07-05T06:55:26;20.50;99.90
21608;DHT22;10966;51.076;3.782;2022-07-05T06:58:04;20.60;99.90
21608;DHT22;10966;51.076;3.782;2022-07-05T07:00:30;20.70;99.90
21608;DHT22;10966;51.076;3.782;2022-07-05T07:02:58;20.30;99.90
21608;DHT22;10966;51.076;3.782;2022-07-05T07:05:24;20.50;99.90
21608;DHT22;10966;51.076;3.782;2022-07-05T07:07:50;20.40;99.90
21608;DHT22;10966;51.076;3.782;2022-07-05T07:10:34;20.40;99.90
21608;DHT22;10966;51.076;3.782;2022-07-05T07:13:00;20.60;99.90
21608;DHT22;10966;51.076;3.782;2022-07-05T07:15:27;20.70;99.90
21608;DHT22;10966;51.076;3.782;2022-07-05T07:17:53;20.30;99.90
21608;DHT22;10966;51.076;3.782;2022-07-05T07:20:18;20.60;99.90
21608;DHT22;10966;51.076;3.782;2022-07-05T07:22:44;20.80;99.90
21608;DHT22;10966;51.076;3.782;2022-07-05T07:25:13;20.80;99.90
21608;DHT22;10966;51.076;3.782;2022-07-05T07:27:44;21.00;99.90
21608;DHT22;10966;51.076;3.782;2022-07-05T07:30:15;20.70;99.90
21608;DHT22;10966;51.076;3.782;2022-07-05T07:32:41;20.90;99.90
21608;DHT22;10966;51.076;3.782;2022-07-05T07:35:08;21.30;99.90
21608;DHT22;10966;51.076;3.782;2022-07-05T07:37:34;21.70;99.90
21608;DHT22;10966;51.076;3.782;2022-07-05T07:40:00;22.00;99.90
21608;DHT22;10966;51.076;3.782;2022-07-05T07:42:27;22.30;99.90
21608;DHT22;10966;51.076;3.782;2022-07-05T07:44:53;22.60;99.90
21608;DHT22;10966;51.076;3.782;2022-07-05T07:47:18;22.60;99.90
21608;DHT22;10966;51.076;3.782;2022-07-05T07:49:44;22.20;99.90
21608;DHT22;10966;51.076;3.782;2022-07-05T07:52:10;22.20;99.90
21608;DHT22;10966;51.076;3.782;2022-07-05T07:54:35;22.60;99.90
21608;DHT22;10966;51.076;3.782;2022-07-05T07:57:01;22.70;99.90
21608;DHT22;10966;51.076;3.782;2022-07-05T07:59:29;22.80;99.90
21608;DHT22;10966;51.076;3.782;2022-07-05T08:01:55;23.00;99.90
21608;DHT22;10966;51.076;3.782;2022-07-05T08:04:20;22.70;99.90
21608;DHT22;10966;51.076;3.782;2022-07-05T08:06:46;21.90;99.90
21608;DHT22;10966;51.076;3.782;2022-07-05T08:09:13;21.30;99.90
21608;DHT22;10966;51.076;3.782;2022-07-05T08:11:39;21.40;99.90
21608;DHT22;10966;51.076;3.782;2022-07-05T08:14:05;21.80;99.90
21608;DHT22;10966;51.076;3.782;2022-07-05T08:16:31;22.30;99.90
21608;DHT22;10966;51.076;3.782;2022-07-05T08:18:56;22.40;99.90
21608;DHT22;10966;51.076;3.782;2022-07-05T08:21:40;22.30;99.90
21608;DHT22;10966;51.076;3.782;2022-07-05T08:24:12;22.40;99.90
21608;DHT22;10966;51.076;3.782;2022-07-05T08:26:39;22.60;99.90
21608;DHT22;10966;51.076;3.782;2022-07-05T08:29:09;22.60;99.90
21608;DHT22;10966;51.076;3.782;2022-07-05T08:31:39;21.90;99.90
21608;DHT22;10966;51.076;3.782;2022-07-05T08:34:05;21.70;99.90
21608;DHT22;10966;51.076;3.782;2022-07-05T08:36:31;21.90;99.90
21608;DHT22;10966;51.076;3.782;2022-07-05T08:38:57;21.70;99.90
21608;DHT22;10966;51.076;3.782;2022-07-05T08:41:23;21.90;99.90
21608;DHT22;10966;51.076;3.782;2022-07-05T08:43:50;21.70;99.90
21608;DHT22;10966;51.076;3.782;2022-07-05T08:46:17;21.30;99.90
21608;DHT22;10966;51.076;3.782;2022-07-05T08:48:46;21.70;99.90
21608;DHT22;10966;51.076;3.782;2022-07-05T08:51:15;22.00;99.90
21608;DHT22;10966;51.076;3.782;2022-07-05T08:53:45;22.30;99.90
21608;DHT22;10966;51.076;3.782;2022-07-05T08:56:13;22.60;99.90
21608;DHT22;10966;51.076;3.782;2022-07-05T08:58:39;22.50;99.90
21608;DHT22;10966;51.076;3.782;2022-07-05T09:01:05;22.10;99.90
21608;DHT22;10966;51.076;3.782;2022-07-05T09:03:53;22.10;99.90
21608;DHT22;10966;51.076;3.782;2022-07-05T09:06:22;22.60;99.90
21608;DHT22;10966;51.076;3.782;2022-07-05T09:08:51;22.90;99.90
21608;DHT22;10966;51.076;3.782;2022-07-05T09:11:24;22.30;99.90
21608;DHT22;10966;51.076;3.782;2022-07-05T09:13:51;22.60;99.90
21608;DHT22;10966;51.076;3.782;2022-07-05T09:16:17;22.90;99.90
21608;DHT22;10966;51.076;3.782;2022-07-05T09:18:53;22.50;99.90
21608;DHT22;10966;51.076;3.782;2022-07-05T09:21:26;22.60;99.90
21608;DHT22;10966;51.076;3.782;2022-07-05T09:24:07;22.90;99.90
21608;DHT22;10966;51.076;3.782;2022-07-05T09:26:44;22.30;99.90
21608;DHT22;10966;51.076;3.782;2022-07-05T09:29:15;22.30;99.90
21608;DHT22;10966;51.076;3.782;2022-07-05T09:31:44;22.80;99.90
21608;DHT22;10966;51.076;3.782;2022-07-05T09:39:39;22.90;99.90
21608;DHT22;10966;51.076;3.782;2022-07-05T09:42:18;22.50;99.90
21608;DHT22;10966;51.076;3.782;2022-07-05T09:44:53;22.10;99.90
21608;DHT22;10966;51.076;3.782;2022-07-05T09:47:23;22.20;99.90
21608;DHT22;10966;51.076;3.782;2022-07-05T09:49:54;22.20;99.90
21608;DHT22;10966;51.076;3.782;2022-07-05T09:52:30;22.10;99.90
21608;DHT22;10966;51.076;3.782;2022-07-05T09:57:35;22.30;99.90
21608;DHT22;10966;51.076;3.782;2022-07-05T10:00:04;23.00;99.90
21608;DHT22;10966;51.076;3.782;2022-07-05T10:02:41;23.60;99.90
21608;DHT22;10966;51.076;3.782;2022-07-05T10:05:12;23.50;99.90
21608;DHT22;10966;51.076;3.782;2022-07-05T10:07:53;23.80;99.90
21608;DHT22;10966;51.076;3.782;2022-07-05T10:10:24;23.30;99.90
21608;DHT22;10966;51.076;3.782;2022-07-05T10:12:57;23.50;99.90
21608;DHT22;10966;51.076;3.782;2022-07-05T10:15:31;24.00;99.90
21608;DHT22;10966;51.076;3.782;2022-07-05T10:18:00;23.00;99.90
21608;DHT22;10966;51.076;3.782;2022-07-05T10:20:43;22.20;99.90
21608;DHT22;10966;51.076;3.782;2022-07-05T10:23:15;22.50;99.90
21608;DHT22;10966;51.076;3.782;2022-07-05T10:25:43;22.80;99.90
21608;DHT22;10966;51.076;3.782;2022-07-05T10:28:09;23.20;99.90
21608;DHT22;10966;51.076;3.782;2022-07-05T10:30:36;23.30;99.90
21608;DHT22;10966;51.076;3.782;2022-07-05T10:33:03;23.40;99.90
21608;DHT22;10966;51.076;3.782;2022-07-05T10:35:29;23.10;99.90
21608;DHT22;10966;51.076;3.782;2022-07-05T10:37:56;23.00;99.90
21608;DHT22;10966;51.076;3.782;2022-07-05T10:40:22;23.10;99.90
21608;DHT22;10966;51.076;3.782;2022-07-05T10:42:52;22.80;99.90
21608;DHT22;10966;51.076;3.782;2022-07-05T10:50:54;22.70;99.90
21608;DHT22;10966;51.076;3.782;2022-07-05T10:56:11;23.40;99.90
21608;DHT22;10966;51.076;3.782;2022-07-05T10:58:37;23.10;99.90
21608;DHT22;10966;51.076;3.782;2022-07-05T11:06:06;22.20;99.90
21608;DHT22;10966;51.076;3.782;2022-07-05T11:11:33;22.70;99.90
21608;DHT22;10966;51.076;3.782;2022-07-05T11:14:04;22.60;99.90
21608;DHT22;10966;51.076;3.782;2022-07-05T11:16:31;22.30;99.90
21608;DHT22;10966;51.076;3.782;2022-07-05T11:19:08;22.50;99.90
21608;DHT22;10966;51.076;3.782;2022-07-05T11:21:35;22.90;99.90
21608;DHT22;10966;51.076;3.782;2022-07-05T11:24:22;23.10;99.90
21608;DHT22;10966;51.076;3.782;2022-07-05T11:26:49;23.70;99.90
21608;DHT22;10966;51.076;3.782;2022-07-05T11:29:46;23.30;99.90
21608;DHT22;10966;51.076;3.782;2022-07-05T11:32:16;23.40;99.90
21608;DHT22;10966;51.076;3.782;2022-07-05T11:34:43;23.40;99.90
21608;DHT22;10966;51.076;3.782;2022-07-05T11:37:22;23.00;99.90
21608;DHT22;10966;51.076;3.782;2022-07-05T11:42:57;23.00;99.90
21608;DHT22;10966;51.076;3.782;2022-07-05T11:45:23;23.20;99.90
21608;DHT22;10966;51.076;3.782;2022-07-05T11:47:53;24.00;99.90
21608;DHT22;10966;51.076;3.782;2022-07-05T11:50:26;23.80;99.90
21608;DHT22;10966;51.076;3.782;2022-07-05T11:52:53;23.30;99.90
21608;DHT22;10966;51.076;3.782;2022-07-05T11:55:18;23.00;99.90
21608;DHT22;10966;51.076;3.782;2022-07-05T11:57:52;23.10;99.90
21608;DHT22;10966;51.076;3.782;2022-07-05T12:00:32;23.30;99.90
21608;DHT22;10966;51.076;3.782;2022-07-05T12:02:58;23.20;99.90
21608;DHT22;10966;51.076;3.782;2022-07-05T12:05:30;23.30;99.90
21608;DHT22;10966;51.076;3.782;2022-07-05T12:07:56;23.00;99.90
21608;DHT22;10966;51.076;3.782;2022-07-05T12:10:21;23.20;99.90
21608;DHT22;10966;51.076;3.782;2022-07-05T12:13:06;23.20;99.90
21608;DHT22;10966;51.076;3.782;2022-07-05T12:15:33;22.90;99.90
21608;DHT22;10966;51.076;3.782;2022-07-05T12:18:01;22.50;99.90
21608;DHT22;10966;51.076;3.782;2022-07-05T12:20:32;23.20;99.90
21608;DHT22;10966;51.076;3.782;2022-07-05T12:22:58;23.20;99.90
21608;DHT22;10966;51.076;3.782;2022-07-05T12:25:25;22.80;99.90
21608;DHT22;10966;51.076;3.782;2022-07-05T12:27:53;22.60;99.90
21608;DHT22;10966;51.076;3.782;2022-07-05T12:30:19;22.70;99.90
21608;DHT22;10966;51.076;3.782;2022-07-05T12:35:44;22.80;99.90
21608;DHT22;10966;51.076;3.782;2022-07-05T12:38:14;22.70;99.90
21608;DHT22;10966;51.076;3.782;2022-07-05T12:40:41;23.00;99.90
21608;DHT22;10966;51.076;3.782;2022-07-05T12:43:12;23.00;99.90
21608;DHT22;10966;51.076;3.782;2022-07-05T12:45:43;23.20;99.90
21608;DHT22;10966;51.076;3.782;2022-07-05T12:48:10;23.00;99.90
21608;DHT22;10966;51.076;3.782;2022-07-05T12:50:49;22.80;99.90
21608;DHT22;10966;51.076;3.782;2022-07-05T12:53:15;23.30;99.90
21608;DHT22;10966;51.076;3.782;2022-07-05T12:56:08;23.80;99.90
21608;DHT22;10966;51.076;3.782;2022-07-05T12:58:55;23.70;99.90
21608;DHT22;10966;51.076;3.782;2022-07-05T13:01:31;22.30;99.90
21608;DHT22;10966;51.076;3.782;2022-07-05T13:04:15;22.70;99.90
21608;DHT22;10966;51.076;3.782;2022-07-05T13:06:52;22.90;99.90
21608;DHT22;10966;51.076;3.782;2022-07-05T13:14:42;23.10;99.90
21608;DHT22;10966;51.076;3.782;2022-07-05T13:17:09;22.80;99.90
21608;DHT22;10966;51.076;3.782;2022-07-05T13:19:36;23.00;99.90
21608;DHT22;10966;51.076;3.782;2022-07-05T13:22:02;23.00;99.90
21608;DHT22;10966;51.076;3.782;2022-07-05T13:24:28;22.50;99.90
21608;DHT22;10966;51.076;3.782;2022-07-05T13:26:54;22.50;99.90
21608;DHT22;10966;51.076;3.782;2022-07-05T13:29:20;22.70;99.90
21608;DHT22;10966;51.076;3.782;2022-07-05T13:31:46;23.40;99.90
21608;DHT22;10966;51.076;3.782;2022-07-05T13:34:12;23.60;99.90
21608;DHT22;10966;51.076;3.782;2022-07-05T13:36:37;23.40;99.90
21608;DHT22;10966;51.076;3.782;2022-07-05T13:39:03;24.10;99.90
21608;DHT22;10966;51.076;3.782;2022-07-05T13:41:28;25.00;99.90
21608;DHT22;10966;51.076;3.782;2022-07-05T13:43:55;24.80;99.90
21608;DHT22;10966;51.076;3.782;2022-07-05T13:46:20;25.60;99.90
21608;DHT22;10966;51.076;3.782;2022-07-05T13:48:46;24.80;99.90
21608;DHT22;10966;51.076;3.782;2022-07-05T13:51:12;23.90;99.90
21608;DHT22;10966;51.076;3.782;2022-07-05T13:53:37;23.80;99.90
21608;DHT22;10966;51.076;3.782;2022-07-05T13:56:06;23.50;99.90
21608;DHT22;10966;51.076;3.782;2022-07-05T13:58:33;23.90;99.90
21608;DHT22;10966;51.076;3.782;2022-07-05T14:00:59;24.70;99.90
21608;DHT22;10966;51.076;3.782;2022-07-05T14:03:25;25.90;99.90
21608;DHT22;10966;51.076;3.782;2022-07-05T14:05:51;25.90;99.90
21608;DHT22;10966;51.076;3.782;2022-07-05T14:08:16;25.60;99.90
21608;DHT22;10966;51.076;3.782;2022-07-05T14:10:48;24.60;99.90
21608;DHT22;10966;51.076;3.782;2022-07-05T14:13:18;24.00;99.90
21608;DHT22;10966;51.076;3.782;2022-07-05T14:15:44;23.80;99.90
21608;DHT22;10966;51.076;3.782;2022-07-05T14:18:11;24.50;99.90
21608;DHT22;10966;51.076;3.782;2022-07-05T14:20:37;24.40;99.90
21608;DHT22;10966;51.076;3.782;2022-07-05T14:23:03;24.90;99.90
21608;DHT22;10966;51.076;3.782;2022-07-05T14:25:29;24.50;99.90
21608;DHT22;10966;51.076;3.782;2022-07-05T14:27:55;25.00;99.90
21608;DHT22;10966;51.076;3.782;2022-07-05T14:30:20;25.20;99.90
21608;DHT22;10966;51.076;3.782;2022-07-05T14:32:49;23.90;99.90
21608;DHT22;10966;51.076;3.782;2022-07-05T14:35:15;23.30;99.90
21608;DHT22;10966;51.076;3.782;2022-07-05T14:37:41;23.80;99.90
21608;DHT22;10966;51.076;3.782;2022-07-05T14:40:07;24.50;99.90
21608;DHT22;10966;51.076;3.782;2022-07-05T14:42:33;24.90;99.90
21608;DHT22;10966;51.076;3.782;2022-07-05T14:44:59;25.40;99.90
21608;DHT22;10966;51.076;3.782;2022-07-05T14:47:24;26.40;99.90
21608;DHT22;10966;51.076;3.782;2022-07-05T14:49:52;26.30;99.60
21608;DHT22;10966;51.076;3.782;2022-07-05T14:52:19;27.20;98.10
21608;DHT22;10966;51.076;3.782;2022-07-05T14:54:45;26.30;98.00
21608;DHT22;10966;51.076;3.782;2022-07-05T14:57:11;25.60;98.70
21608;DHT22;10966;51.076;3.782;2022-07-05T14:59:36;25.40;99.20
21608;DHT22;10966;51.076;3.782;2022-07-05T15:02:02;25.30;99.10
21608;DHT22;10966;51.076;3.782;2022-07-05T15:04:31;25.00;99.00
21608;DHT22;10966;51.076;3.782;2022-07-05T15:06:57;26.10;97.80
21608;DHT22;10966;51.076;3.782;2022-07-05T15:09:22;27.50;95.40
21608;DHT22;10966;51.076;3.782;2022-07-05T15:11:48;28.00;95.10
21608;DHT22;10966;51.076;3.782;2022-07-05T15:14:13;27.60;93.80
21608;DHT22;10966;51.076;3.782;2022-07-05T15:16:39;25.30;95.60
21608;DHT22;10966;51.076;3.782;2022-07-05T15:19:07;25.30;97.30
21608;DHT22;10966;51.076;3.782;2022-07-05T15:21:33;25.60;95.90
21608;DHT22;10966;51.076;3.782;2022-07-05T15:23:59;26.10;95.30
21608;DHT22;10966;51.076;3.782;2022-07-05T15:26:27;24.90;96.50
21608;DHT22;10966;51.076;3.782;2022-07-05T15:29:05;24.80;97.70
21608;DHT22;10966;51.076;3.782;2022-07-05T15:31:31;25.80;95.70
21608;DHT22;10966;51.076;3.782;2022-07-05T15:33:58;25.10;95.80
21608;DHT22;10966;51.076;3.782;2022-07-05T15:36:24;24.90;95.90
21608;DHT22;10966;51.076;3.782;2022-07-05T15:38:54;25.10;96.00
21608;DHT22;10966;51.076;3.782;2022-07-05T15:41:20;26.50;94.70
21608;DHT22;10966;51.076;3.782;2022-07-05T15:43:46;27.20;93.30
21608;DHT22;10966;51.076;3.782;2022-07-05T15:46:12;27.50;91.90
21608;DHT22;10966;51.076;3.782;2022-07-05T15:48:40;27.90;90.20
21608;DHT22;10966;51.076;3.782;2022-07-05T15:51:06;27.30;90.50
21608;DHT22;10966;51.076;3.782;2022-07-05T15:53:32;26.50;91.00
21608;DHT22;10966;51.076;3.782;2022-07-05T15:55:59;27.10;90.20
21608;DHT22;10966;51.076;3.782;2022-07-05T15:58:29;27.50;88.50
21608;DHT22;10966;51.076;3.782;2022-07-05T16:00:55;28.20;87.30
21608;DHT22;10966;51.076;3.782;2022-07-05T16:03:22;27.50;86.50
21608;DHT22;10966;51.076;3.782;2022-07-05T16:05:47;27.20;86.80
21608;DHT22;10966;51.076;3.782;2022-07-05T16:08:13;28.20;85.00